createdAt,value
2023-02-12T00:00:01.693Z,2.08
2023-02-12T00:04:05.560Z,1.97
2023-02-12T00:08:08.730Z,1.97
2023-02-12T00:12:10.676Z,1.95
2023-02-12T00:16:18.058Z,1.93
2023-02-12T00:20:20.126Z,1.93
2023-02-12T00:24:22.198Z,1.84
2023-02-12T00:28:24.200Z,1.82
2023-02-12T00:32:26.006Z,1.84
2023-02-12T00:36:30.677Z,1.74
2023-02-12T00:40:32.784Z,1.75
2023-02-12T00:44:35.025Z,1.73
2023-02-12T00:48:38.415Z,1.68
2023-02-12T00:52:40.334Z,1.68
2023-02-12T00:56:43.191Z,1.66
2023-02-12T01:00:45.173Z,1.69
2023-02-12T01:04:47.200Z,1.55
2023-02-12T01:08:53.199Z,1.40
2023-02-12T01:12:55.803Z,1.36
2023-02-12T01:16:57.577Z,1.41
2023-02-12T01:20:59.687Z,1.40
2023-02-12T01:25:01.434Z,1.35
2023-02-12T01:29:06.291Z,1.42
2023-02-12T01:33:08.272Z,1.36
2023-02-12T01:37:09.993Z,1.42
2023-02-12T01:41:21.235Z,1.38
2023-02-12T01:45:23.893Z,1.23
2023-02-12T01:49:38.848Z,1.38
2023-02-12T01:53:46.957Z,1.36
2023-02-12T01:57:49.467Z,1.28
2023-02-12T02:01:53.354Z,1.30
2023-02-12T02:06:07.457Z,1.06
2023-02-12T02:10:10.985Z,1.01
2023-02-12T02:14:31.601Z,1.07
2023-02-12T02:18:40.820Z,1.02
2023-02-12T02:23:10.960Z,1.06
2023-02-12T02:27:20.633Z,1.01
2023-02-12T02:31:42.757Z,1.19
2023-02-12T02:35:57.594Z,1.11
2023-02-12T02:40:12.817Z,1.13
2023-02-12T02:44:20.473Z,1.04
2023-02-12T02:48:30.547Z,1.06
2023-02-12T02:52:49.657Z,1.13
2023-02-12T02:56:58.730Z,1.15
2023-02-12T03:01:06.126Z,1.22
2023-02-12T03:05:19.068Z,1.06
2023-02-12T03:09:35.207Z,1.06
2023-02-12T03:13:44.935Z,1.04
2023-02-12T03:17:49.251Z,1.11
2023-02-12T03:22:00.458Z,1.17
2023-02-12T03:26:09.659Z,1.26
2023-02-12T03:30:12.119Z,1.31
2023-02-12T03:34:23.728Z,1.22
2023-02-12T03:38:38.668Z,1.18
2023-02-12T03:43:02.367Z,1.22
2023-02-12T03:47:23.199Z,1.13
2023-02-12T03:51:38.280Z,1.21
2023-02-12T03:55:43.484Z,1.17
2023-02-12T03:59:45.840Z,1.13
2023-02-12T04:03:48.262Z,1.13
2023-02-12T04:07:51.908Z,1.00
2023-02-12T04:12:34.849Z,1.01
2023-02-12T04:16:45.865Z,0.80
2023-02-12T04:20:57.375Z,0.83
2023-02-12T04:25:16.364Z,0.85
2023-02-12T04:29:21.341Z,0.78
2023-02-12T04:33:27.717Z,0.57
2023-02-12T04:37:36.015Z,0.75
2023-02-12T04:41:40.745Z,0.66
2023-02-12T04:45:42.766Z,0.73
2023-02-12T04:49:44.847Z,0.64
2023-02-12T04:53:47.586Z,0.56
2023-02-12T04:57:49.566Z,0.47
2023-02-12T05:01:51.749Z,0.42
2023-02-12T05:05:53.966Z,0.46
2023-02-12T05:09:56.096Z,0.67
2023-02-12T05:13:59.073Z,0.55
2023-02-12T05:18:01.164Z,0.44
2023-02-12T05:22:03.638Z,0.63
2023-02-12T05:26:14.907Z,0.66
2023-02-12T05:30:17.238Z,0.67
2023-02-12T05:34:20.290Z,0.66
2023-02-12T05:38:22.464Z,0.71
2023-02-12T05:42:24.665Z,0.68
2023-02-12T05:46:26.684Z,0.66
2023-02-12T05:50:28.776Z,0.68
2023-02-12T05:54:35.284Z,0.65
2023-02-12T05:58:37.499Z,0.60
2023-02-12T06:02:39.565Z,0.58
2023-02-12T06:06:42.327Z,0.55
2023-02-12T06:10:44.319Z,0.50
2023-02-12T06:14:46.396Z,0.55
2023-02-12T06:18:49.441Z,0.47
2023-02-12T06:22:51.390Z,0.40
2023-02-12T06:26:53.362Z,0.32
2023-02-12T06:30:55.423Z,0.33
2023-02-12T06:34:57.445Z,0.42
2023-02-12T06:39:02.347Z,0.31
2023-02-12T06:43:04.420Z,0.22
2023-02-12T06:47:06.315Z,-0.04
2023-02-12T06:51:14.803Z,-0.11
2023-02-12T06:55:17.196Z,-0.35
2023-02-12T06:59:19.155Z,-0.45
2023-02-12T07:03:21.121Z,-0.47
2023-02-12T07:07:23.018Z,-0.40
2023-02-12T07:11:30.826Z,-0.34
2023-02-12T07:15:32.765Z,-0.27
2023-02-12T07:19:34.730Z,-0.16
2023-02-12T07:23:36.833Z,-0.01
2023-02-12T07:27:39.144Z,0.07
2023-02-12T07:31:41.731Z,0.35
2023-02-12T07:35:43.897Z,0.48
2023-02-12T07:39:45.489Z,0.44
2023-02-12T07:43:49.389Z,0.54
2023-02-12T07:47:51.690Z,0.66
2023-02-12T07:51:55.907Z,0.83
2023-02-12T07:56:07.731Z,0.97
2023-02-12T08:00:10.581Z,1.01
2023-02-12T08:04:18.087Z,0.99
2023-02-12T08:08:20.269Z,1.15
2023-02-12T08:12:23.729Z,1.20
2023-02-12T08:16:27.714Z,1.34
2023-02-12T08:20:29.493Z,1.46
2023-02-12T08:24:31.543Z,1.53
2023-02-12T08:28:33.857Z,1.49
2023-02-12T08:32:35.689Z,1.64
2023-02-12T08:36:40.156Z,1.59
2023-02-12T08:40:42.247Z,1.56
2023-02-12T08:44:44.222Z,1.55
2023-02-12T08:48:46.676Z,1.65
2023-02-12T08:52:48.342Z,1.77
2023-02-12T08:56:50.831Z,1.81
2023-02-12T09:00:53.347Z,1.79
2023-02-12T09:04:55.463Z,2.11
2023-02-12T09:08:57.370Z,2.09
2023-02-12T09:12:59.529Z,1.83
2023-02-12T09:17:01.653Z,1.87
2023-02-12T09:21:06.715Z,1.88
2023-02-12T09:25:08.504Z,2.01
2023-02-12T09:29:10.534Z,2.14
2023-02-12T09:33:12.564Z,2.02
2023-02-12T09:37:14.586Z,2.21
2023-02-12T09:41:35.046Z,2.29
2023-02-12T09:45:51.307Z,2.58
2023-02-12T09:50:01.635Z,2.46
2023-02-12T09:54:14.181Z,2.51
2023-02-12T09:58:35.448Z,2.60
2023-02-12T10:02:39.903Z,2.86
2023-02-12T10:06:55.997Z,2.77
2023-02-12T10:11:38.357Z,3.00
2023-02-12T10:16:05.198Z,2.97
2023-02-12T10:20:34.897Z,3.14
2023-02-12T10:24:53.692Z,2.86
2023-02-12T10:28:59.221Z,2.99
2023-02-12T10:33:07.584Z,2.93
2023-02-12T10:37:18.997Z,3.20
2023-02-12T10:41:23.124Z,3.28
2023-02-12T10:45:36.295Z,3.42
2023-02-12T10:49:38.406Z,3.14
2023-02-12T10:53:43.370Z,3.49
2023-02-12T10:57:45.388Z,3.41
2023-02-12T11:01:47.931Z,3.32
2023-02-12T11:05:50.182Z,3.60
2023-02-12T11:09:54.764Z,3.53
2023-02-12T11:14:21.437Z,3.38
2023-02-12T11:18:26.248Z,3.67
2023-02-12T11:22:28.429Z,3.63
2023-02-12T11:26:31.219Z,3.84
2023-02-12T11:30:33.559Z,3.64
2023-02-12T11:34:36.546Z,3.77
2023-02-12T11:38:58.971Z,3.45
2023-02-12T11:43:05.780Z,3.35
2023-02-12T11:47:18.658Z,3.46
2023-02-12T11:51:29.719Z,3.45
2023-02-12T11:55:35.763Z,3.53
2023-02-12T11:59:42.877Z,3.58
2023-02-12T12:04:06.719Z,3.69
2023-02-12T12:08:19.463Z,3.93
2023-02-12T12:12:48.129Z,4.08
2023-02-12T12:17:19.213Z,4.31
2023-02-12T12:21:42.456Z,4.01
2023-02-12T12:25:52.483Z,4.11
2023-02-12T12:30:06.690Z,3.91
2023-02-12T12:34:13.355Z,3.93
2023-02-12T12:38:40.763Z,3.88
2023-02-12T12:43:14.281Z,3.86
2023-02-12T12:47:55.983Z,4.10
2023-02-12T12:52:23.742Z,3.91
2023-02-12T12:56:36.950Z,3.85
2023-02-12T13:00:57.204Z,3.93
2023-02-12T13:05:40.707Z,4.11
2023-02-12T13:10:04.427Z,4.34
2023-02-12T13:14:41.375Z,4.59
2023-02-12T13:19:07.599Z,4.49
2023-02-12T13:23:48.406Z,4.32
2023-02-12T13:27:51.907Z,4.27
2023-02-12T13:32:28.874Z,3.92
2023-02-12T13:36:31.056Z,3.99
2023-02-12T13:40:34.807Z,3.93
2023-02-12T13:44:43.669Z,3.97
2023-02-12T13:48:48.390Z,4.01
2023-02-12T13:53:02.429Z,3.88
2023-02-12T13:57:13.375Z,3.62
2023-02-12T14:01:36.370Z,3.52
2023-02-12T14:05:39.433Z,3.31
2023-02-12T14:09:51.756Z,3.35
2023-02-12T14:14:01.605Z,3.47
2023-02-12T14:18:07.065Z,3.57
2023-02-12T14:22:33.703Z,3.30
2023-02-12T14:26:38.273Z,3.15
2023-02-12T14:30:41.019Z,3.05
2023-02-12T14:34:42.803Z,2.96
2023-02-12T14:38:47.842Z,2.85
2023-02-12T14:42:56.258Z,2.79
2023-02-12T14:47:05.172Z,2.69
2023-02-12T14:51:16.917Z,2.67
2023-02-12T14:55:24.904Z,2.57
2023-02-12T14:59:32.535Z,2.45
2023-02-12T15:03:37.547Z,2.42
2023-02-12T15:07:52.324Z,2.33
2023-02-12T15:12:05.676Z,2.19
2023-02-12T15:16:15.418Z,2.25
2023-02-12T15:20:23.629Z,2.07
2023-02-12T15:24:27.052Z,2.14
2023-02-12T15:28:35.583Z,2.14
2023-02-12T15:32:38.967Z,2.12
2023-02-12T15:36:45.840Z,1.95
2023-02-12T15:40:59.813Z,1.96
2023-02-12T15:45:14.966Z,1.96
2023-02-12T15:49:22.317Z,1.66
2023-02-12T15:53:28.167Z,1.53
2023-02-12T15:57:30.456Z,1.48
2023-02-12T16:01:35.370Z,1.45
2023-02-12T16:05:37.903Z,1.39
2023-02-12T16:09:42.381Z,1.31
2023-02-12T16:13:48.755Z,1.35
2023-02-12T16:17:51.340Z,1.34
2023-02-12T16:22:05.007Z,1.23
2023-02-12T16:26:07.131Z,1.24
2023-02-12T16:30:27.312Z,1.14
2023-02-12T16:34:36.146Z,1.09
2023-02-12T16:38:41.442Z,0.92
2023-02-12T16:42:47.462Z,0.76
2023-02-12T16:46:55.626Z,0.53
2023-02-12T16:50:59.135Z,0.28
2023-02-12T16:55:01.974Z,0.18
2023-02-12T16:59:05.447Z,0.04
2023-02-12T17:03:10.477Z,0.15
2023-02-12T17:07:24.450Z,0.15
2023-02-12T17:11:28.304Z,-0.04
2023-02-12T17:15:35.803Z,-0.02
2023-02-12T17:19:38.191Z,0.01
2023-02-12T17:23:41.658Z,0.05
2023-02-12T17:27:43.700Z,0.01
2023-02-12T17:31:46.038Z,0.09
2023-02-12T17:35:48.129Z,0.09
2023-02-12T17:39:50.165Z,0.15
2023-02-12T17:43:52.321Z,0.17
2023-02-12T17:47:54.591Z,0.18
2023-02-12T17:51:56.685Z,0.02
2023-02-12T17:55:59.147Z,-0.10
2023-02-12T18:00:01.330Z,0.02
2023-02-12T18:04:12.884Z,0.07
2023-02-12T18:08:14.886Z,0.37
2023-02-12T18:12:17.051Z,0.61
2023-02-12T18:16:19.541Z,0.78
2023-02-12T18:20:22.274Z,1.02
2023-02-12T18:24:24.292Z,1.22
2023-02-12T18:28:26.300Z,1.35
2023-02-12T18:32:28.488Z,1.43
2023-02-12T18:36:30.472Z,1.54
2023-02-12T18:40:32.419Z,1.61
2023-02-12T18:44:34.856Z,1.70
2023-02-12T18:48:37.001Z,1.74
2023-02-12T18:52:39.050Z,1.88
2023-02-12T18:56:44.396Z,1.83
2023-02-12T19:00:46.556Z,1.93
2023-02-12T19:04:48.573Z,2.05
2023-02-12T19:08:55.983Z,2.12
2023-02-12T19:12:58.811Z,2.26
2023-02-12T19:17:00.978Z,2.27
2023-02-12T19:21:14.277Z,2.40
2023-02-12T19:25:16.265Z,2.58
2023-02-12T19:29:18.414Z,2.59
2023-02-12T19:33:20.496Z,2.53
2023-02-12T19:37:22.985Z,2.56
2023-02-12T19:41:26.962Z,2.59
2023-02-12T19:45:28.997Z,2.58
2023-02-12T19:49:31.031Z,2.51
2023-02-12T19:53:33.000Z,2.57
2023-02-12T19:57:37.907Z,2.63
2023-02-12T20:01:40.585Z,2.67
2023-02-12T20:05:46.487Z,2.58
2023-02-12T20:09:51.395Z,2.79
2023-02-12T20:13:53.764Z,2.79
2023-02-12T20:17:56.047Z,2.73
2023-02-12T20:22:01.492Z,2.73
2023-02-12T20:26:05.857Z,2.69
2023-02-12T20:30:08.558Z,2.79
2023-02-12T20:34:15.063Z,2.67
2023-02-12T20:38:17.205Z,2.73
2023-02-12T20:42:19.146Z,2.61
2023-02-12T20:46:23.244Z,2.61
2023-02-12T20:50:25.396Z,2.67
2023-02-12T20:54:27.519Z,2.68
2023-02-12T20:58:29.585Z,2.75
2023-02-12T21:02:31.650Z,2.91
2023-02-12T21:06:33.944Z,2.93
2023-02-12T21:10:35.622Z,3.03
2023-02-12T21:14:37.655Z,3.10
2023-02-12T21:18:39.691Z,3.08
2023-02-12T21:22:41.374Z,3.22
2023-02-12T21:26:43.873Z,3.30
2023-02-12T21:30:46.314Z,3.25
2023-02-12T21:34:49.047Z,3.35
2023-02-12T21:38:52.194Z,3.29
2023-02-12T21:42:55.438Z,3.35
2023-02-12T21:46:57.550Z,3.31
2023-02-12T21:50:59.935Z,3.39
2023-02-12T21:55:02.273Z,3.31
2023-02-12T21:59:04.694Z,3.49
2023-02-12T22:03:06.395Z,3.50
2023-02-12T22:07:08.543Z,3.45
2023-02-12T22:11:12.001Z,3.50
2023-02-12T22:15:13.718Z,3.51
2023-02-12T22:19:15.860Z,3.67
2023-02-12T22:23:17.845Z,3.65
2023-02-12T22:27:19.797Z,3.70
2023-02-12T22:31:29.307Z,3.67
2023-02-12T22:35:32.281Z,3.77
2023-02-12T22:39:34.232Z,3.67
2023-02-12T22:43:39.982Z,3.66
2023-02-12T22:47:41.706Z,3.77
2023-02-12T22:51:43.722Z,3.57
2023-02-12T22:55:45.855Z,3.71
2023-02-12T22:59:49.131Z,3.63
2023-02-12T23:03:51.609Z,3.64
2023-02-12T23:07:53.587Z,3.65
2023-02-12T23:11:55.751Z,3.75
2023-02-12T23:15:58.820Z,3.71
2023-02-12T23:20:00.566Z,3.71
2023-02-12T23:24:02.736Z,3.69
2023-02-12T23:28:04.976Z,3.69
2023-02-12T23:32:06.957Z,3.88
2023-02-12T23:36:09.468Z,3.71
2023-02-12T23:40:11.973Z,3.86
2023-02-12T23:44:13.981Z,3.87
2023-02-12T23:48:15.766Z,3.98
2023-02-12T23:52:17.738Z,3.90
2023-02-12T23:56:19.657Z,3.88
